sensor_id;sensor_type;location;lat;lon;timestamp;temperature;humidity
1361;DHT22;674;45.552;-122.600;2024-03-07T00:01:41;8.50;1.00
1361;DHT22;674;45.552;-122.600;2024-03-07T00:04:10;8.30;1.00
1361;DHT22;674;45.552;-122.600;2024-03-07T00:06:38;8.30;1.00
1361;DHT22;674;45.552;-122.600;2024-03-07T00:09:08;8.20;1.00
1361;DHT22;674;45.552;-122.600;2024-03-07T00:11:38;8.20;1.00
1361;DHT22;674;45.552;-122.600;2024-03-07T00:14:06;8.00;1.00
1361;DHT22;674;45.552;-122.600;2024-03-07T00:16:35;8.00;1.00
1361;DHT22;674;45.552;-122.600;2024-03-07T00:19:03;8.00;1.00
1361;DHT22;674;45.552;-122.600;2024-03-07T00:21:32;8.00;1.00
1361;DHT22;674;45.552;-122.600;2024-03-07T00:24:00;8.10;1.00
1361;DHT22;674;45.552;-122.600;2024-03-07T00:26:28;8.10;1.00
1361;DHT22;674;45.552;-122.600;2024-03-07T00:28:58;8.00;1.00
1361;DHT22;674;45.552;-122.600;2024-03-07T00:31:27;8.10;1.00
1361;DHT22;674;45.552;-122.600;2024-03-07T00:33:57;8.00;1.00
1361;DHT22;674;45.552;-122.600;2024-03-07T00:36:40;8.00;1.00
1361;DHT22;674;45.552;-122.600;2024-03-07T00:39:08;8.00;1.00
1361;DHT22;674;45.552;-122.600;2024-03-07T00:41:40;8.00;1.00
1361;DHT22;674;45.552;-122.600;2024-03-07T00:44:09;8.00;1.00
1361;DHT22;674;45.552;-122.600;2024-03-07T00:46:38;8.10;1.00
1361;DHT22;674;45.552;-122.600;2024-03-07T00:49:06;7.90;1.00
1361;DHT22;674;45.552;-122.600;2024-03-07T00:51:35;8.00;1.00
1361;DHT22;674;45.552;-122.600;2024-03-07T00:54:06;7.80;1.00
1361;DHT22;674;45.552;-122.600;2024-03-07T00:56:35;7.70;1.00
1361;DHT22;674;45.552;-122.600;2024-03-07T00:59:04;7.60;1.00
1361;DHT22;674;45.552;-122.600;2024-03-07T01:01:33;7.70;1.00
1361;DHT22;674;45.552;-122.600;2024-03-07T01:04:04;7.70;1.00
1361;DHT22;674;45.552;-122.600;2024-03-07T01:06:33;7.60;1.00
1361;DHT22;674;45.552;-122.600;2024-03-07T01:09:02;7.60;1.00
1361;DHT22;674;45.552;-122.600;2024-03-07T01:11:30;7.50;1.00
1361;DHT22;674;45.552;-122.600;2024-03-07T01:13:59;7.60;1.00
1361;DHT22;674;45.552;-122.600;2024-03-07T01:16:27;7.50;1.00
1361;DHT22;674;45.552;-122.600;2024-03-07T01:18:56;7.40;1.00
1361;DHT22;674;45.552;-122.600;2024-03-07T01:21:24;7.30;1.00
1361;DHT22;674;45.552;-122.600;2024-03-07T01:23:53;7.30;1.00
1361;DHT22;674;45.552;-122.600;2024-03-07T01:26:22;7.30;1.00
1361;DHT22;674;45.552;-122.600;2024-03-07T01:28:52;7.20;1.00
1361;DHT22;674;45.552;-122.600;2024-03-07T01:31:22;7.30;1.00
1361;DHT22;674;45.552;-122.600;2024-03-07T01:33:51;7.30;1.00
1361;DHT22;674;45.552;-122.600;2024-03-07T01:36:20;7.10;1.00
1361;DHT22;674;45.552;-122.600;2024-03-07T01:38:48;7.10;1.00
1361;DHT22;674;45.552;-122.600;2024-03-07T01:41:17;6.90;1.00
1361;DHT22;674;45.552;-122.600;2024-03-07T01:43:46;7.20;1.00
1361;DHT22;674;45.552;-122.600;2024-03-07T01:46:14;7.00;1.00
1361;DHT22;674;45.552;-122.600;2024-03-07T01:48:43;7.20;1.00
1361;DHT22;674;45.552;-122.600;2024-03-07T01:51:12;6.90;1.00
1361;DHT22;674;45.552;-122.600;2024-03-07T01:53:40;6.80;1.00
1361;DHT22;674;45.552;-122.600;2024-03-07T01:56:09;6.90;1.00
1361;DHT22;674;45.552;-122.600;2024-03-07T01:58:37;6.90;1.00
1361;DHT22;674;45.552;-122.600;2024-03-07T02:01:06;6.80;1.00
1361;DHT22;674;45.552;-122.600;2024-03-07T02:03:35;6.80;1.00
1361;DHT22;674;45.552;-122.600;2024-03-07T02:06:04;6.80;1.00
1361;DHT22;674;45.552;-122.600;2024-03-07T02:08:32;6.90;1.00
1361;DHT22;674;45.552;-122.600;2024-03-07T02:11:02;6.90;1.00
1361;DHT22;674;45.552;-122.600;2024-03-07T02:13:31;6.70;1.00
1361;DHT22;674;45.552;-122.600;2024-03-07T02:15:59;6.80;1.00
1361;DHT22;674;45.552;-122.600;2024-03-07T02:18:28;6.60;1.00
1361;DHT22;674;45.552;-122.600;2024-03-07T02:20:57;6.70;1.00
1361;DHT22;674;45.552;-122.600;2024-03-07T02:23:26;6.80;1.00
1361;DHT22;674;45.552;-122.600;2024-03-07T02:25:55;6.90;1.00
1361;DHT22;674;45.552;-122.600;2024-03-07T02:28:24;6.80;1.00
1361;DHT22;674;45.552;-122.600;2024-03-07T02:30:52;6.80;1.00
1361;DHT22;674;45.552;-122.600;2024-03-07T02:33:21;6.60;1.00
1361;DHT22;674;45.552;-122.600;2024-03-07T02:35:49;6.60;1.00
1361;DHT22;674;45.552;-122.600;2024-03-07T02:38:19;6.50;1.00
1361;DHT22;674;45.552;-122.600;2024-03-07T02:40:47;6.60;1.00
1361;DHT22;674;45.552;-122.600;2024-03-07T02:43:16;6.60;1.00
1361;DHT22;674;45.552;-122.600;2024-03-07T02:45:44;6.50;1.00
1361;DHT22;674;45.552;-122.600;2024-03-07T02:48:13;6.60;1.00
1361;DHT22;674;45.552;-122.600;2024-03-07T02:50:42;6.50;1.00
1361;DHT22;674;45.552;-122.600;2024-03-07T02:53:11;6.50;1.00
1361;DHT22;674;45.552;-122.600;2024-03-07T02:55:39;6.60;1.00
1361;DHT22;674;45.552;-122.600;2024-03-07T02:58:09;6.60;1.00
1361;DHT22;674;45.552;-122.600;2024-03-07T03:00:38;6.40;1.00
1361;DHT22;674;45.552;-122.600;2024-03-07T03:03:07;6.40;1.00
1361;DHT22;674;45.552;-122.600;2024-03-07T03:05:35;6.50;1.00
1361;DHT22;674;45.552;-122.600;2024-03-07T03:08:04;6.50;1.00
1361;DHT22;674;45.552;-122.600;2024-03-07T03:10:35;6.50;1.00
1361;DHT22;674;45.552;-122.600;2024-03-07T03:13:04;6.50;1.00
1361;DHT22;674;45.552;-122.600;2024-03-07T03:15:32;6.50;1.00
1361;DHT22;674;45.552;-122.600;2024-03-07T03:18:01;6.60;1.00
1361;DHT22;674;45.552;-122.600;2024-03-07T03:20:31;6.30;1.00
1361;DHT22;674;45.552;-122.600;2024-03-07T03:23:07;6.30;1.00
1361;DHT22;674;45.552;-122.600;2024-03-07T03:25:48;6.20;1.00
1361;DHT22;674;45.552;-122.600;2024-03-07T03:28:18;6.20;1.00
1361;DHT22;674;45.552;-122.600;2024-03-07T03:30:49;6.10;1.00
1361;DHT22;674;45.552;-122.600;2024-03-07T03:33:21;6.20;1.00
1361;DHT22;674;45.552;-122.600;2024-03-07T03:35:49;6.30;1.00
1361;DHT22;674;45.552;-122.600;2024-03-07T03:38:18;6.20;1.00
1361;DHT22;674;45.552;-122.600;2024-03-07T03:40:48;6.10;1.00
1361;DHT22;674;45.552;-122.600;2024-03-07T03:43:16;6.10;1.00
1361;DHT22;674;45.552;-122.600;2024-03-07T03:45:46;6.20;1.00
1361;DHT22;674;45.552;-122.600;2024-03-07T03:48:15;6.10;1.00
1361;DHT22;674;45.552;-122.600;2024-03-07T03:50:44;6.00;1.00
1361;DHT22;674;45.552;-122.600;2024-03-07T03:53:14;6.30;1.00
1361;DHT22;674;45.552;-122.600;2024-03-07T03:55:43;6.30;1.00
1361;DHT22;674;45.552;-122.600;2024-03-07T03:58:12;6.20;1.00
1361;DHT22;674;45.552;-122.600;2024-03-07T04:00:40;6.50;1.00
1361;DHT22;674;45.552;-122.600;2024-03-07T04:03:08;6.10;1.00
1361;DHT22;674;45.552;-122.600;2024-03-07T04:05:37;6.00;1.00
1361;DHT22;674;45.552;-122.600;2024-03-07T04:08:06;6.10;1.00
1361;DHT22;674;45.552;-122.600;2024-03-07T04:10:35;6.10;1.00
1361;DHT22;674;45.552;-122.600;2024-03-07T04:13:04;6.00;1.00
1361;DHT22;674;45.552;-122.600;2024-03-07T04:15:32;6.20;1.00
1361;DHT22;674;45.552;-122.600;2024-03-07T04:18:03;6.20;1.00
1361;DHT22;674;45.552;-122.600;2024-03-07T04:20:33;6.00;1.00
1361;DHT22;674;45.552;-122.600;2024-03-07T04:23:01;6.20;1.00
1361;DHT22;674;45.552;-122.600;2024-03-07T04:25:33;5.90;1.00
1361;DHT22;674;45.552;-122.600;2024-03-07T04:28:01;6.10;1.00
1361;DHT22;674;45.552;-122.600;2024-03-07T04:30:31;5.80;1.00
1361;DHT22;674;45.552;-122.600;2024-03-07T04:32:59;5.90;1.00
1361;DHT22;674;45.552;-122.600;2024-03-07T04:35:28;6.10;1.00
1361;DHT22;674;45.552;-122.600;2024-03-07T04:37:56;5.80;1.00
1361;DHT22;674;45.552;-122.600;2024-03-07T04:40:25;6.20;1.00
1361;DHT22;674;45.552;-122.600;2024-03-07T04:42:53;5.80;1.00
1361;DHT22;674;45.552;-122.600;2024-03-07T04:45:22;5.70;1.00
1361;DHT22;674;45.552;-122.600;2024-03-07T04:47:50;5.70;1.00
1361;DHT22;674;45.552;-122.600;2024-03-07T04:50:19;5.80;1.00
1361;DHT22;674;45.552;-122.600;2024-03-07T04:52:48;5.80;1.00
1361;DHT22;674;45.552;-122.600;2024-03-07T04:55:17;5.90;1.00
1361;DHT22;674;45.552;-122.600;2024-03-07T04:57:46;5.90;1.00
1361;DHT22;674;45.552;-122.600;2024-03-07T05:00:15;5.80;1.00
1361;DHT22;674;45.552;-122.600;2024-03-07T05:02:48;5.80;1.00
1361;DHT22;674;45.552;-122.600;2024-03-07T05:05:20;5.60;1.00
1361;DHT22;674;45.552;-122.600;2024-03-07T05:07:53;5.60;1.00
1361;DHT22;674;45.552;-122.600;2024-03-07T05:10:23;5.60;1.00
1361;DHT22;674;45.552;-122.600;2024-03-07T05:12:52;5.60;1.00
1361;DHT22;674;45.552;-122.600;2024-03-07T05:15:21;5.50;1.00
1361;DHT22;674;45.552;-122.600;2024-03-07T05:17:53;5.50;1.00
1361;DHT22;674;45.552;-122.600;2024-03-07T05:20:24;5.40;1.00
1361;DHT22;674;45.552;-122.600;2024-03-07T05:22:52;5.30;1.00
1361;DHT22;674;45.552;-122.600;2024-03-07T05:25:21;5.30;1.00
1361;DHT22;674;45.552;-122.600;2024-03-07T05:27:52;5.40;1.00
1361;DHT22;674;45.552;-122.600;2024-03-07T05:30:22;5.30;1.00
1361;DHT22;674;45.552;-122.600;2024-03-07T05:32:53;5.30;1.00
1361;DHT22;674;45.552;-122.600;2024-03-07T05:35:22;5.10;1.00
1361;DHT22;674;45.552;-122.600;2024-03-07T05:37:50;5.20;1.00
1361;DHT22;674;45.552;-122.600;2024-03-07T05:40:19;5.50;1.00
1361;DHT22;674;45.552;-122.600;2024-03-07T05:42:48;5.50;1.00
1361;DHT22;674;45.552;-122.600;2024-03-07T05:45:17;5.20;1.00
1361;DHT22;674;45.552;-122.600;2024-03-07T05:47:45;5.00;1.00
1361;DHT22;674;45.552;-122.600;2024-03-07T05:50:15;5.20;1.00
1361;DHT22;674;45.552;-122.600;2024-03-07T05:52:44;4.90;1.00
1361;DHT22;674;45.552;-122.600;2024-03-07T05:55:13;5.30;1.00
1361;DHT22;674;45.552;-122.600;2024-03-07T05:57:43;5.00;1.00
1361;DHT22;674;45.552;-122.600;2024-03-07T06:00:13;4.90;1.00
1361;DHT22;674;45.552;-122.600;2024-03-07T06:02:43;4.80;1.00
1361;DHT22;674;45.552;-122.600;2024-03-07T06:05:11;4.60;1.00
1361;DHT22;674;45.552;-122.600;2024-03-07T06:07:44;4.60;1.00
1361;DHT22;674;45.552;-122.600;2024-03-07T06:10:16;4.50;1.00
1361;DHT22;674;45.552;-122.600;2024-03-07T06:12:44;4.40;1.00
1361;DHT22;674;45.552;-122.600;2024-03-07T06:15:16;4.30;1.00
1361;DHT22;674;45.552;-122.600;2024-03-07T06:17:45;4.40;1.00
1361;DHT22;674;45.552;-122.600;2024-03-07T06:20:14;4.30;1.00
1361;DHT22;674;45.552;-122.600;2024-03-07T06:22:53;4.10;1.00
1361;DHT22;674;45.552;-122.600;2024-03-07T06:25:21;3.80;1.00
1361;DHT22;674;45.552;-122.600;2024-03-07T06:28:05;4.00;1.00
1361;DHT22;674;45.552;-122.600;2024-03-07T06:30:42;3.60;1.00
1361;DHT22;674;45.552;-122.600;2024-03-07T06:33:14;3.80;1.00
1361;DHT22;674;45.552;-122.600;2024-03-07T06:35:42;3.50;1.00
1361;DHT22;674;45.552;-122.600;2024-03-07T06:38:11;3.50;1.00
1361;DHT22;674;45.552;-122.600;2024-03-07T06:40:40;3.60;1.00
1361;DHT22;674;45.552;-122.600;2024-03-07T06:43:10;3.50;1.00
1361;DHT22;674;45.552;-122.600;2024-03-07T06:45:39;3.50;1.00
1361;DHT22;674;45.552;-122.600;2024-03-07T06:48:09;3.40;1.00
1361;DHT22;674;45.552;-122.600;2024-03-07T06:50:38;3.20;1.00
1361;DHT22;674;45.552;-122.600;2024-03-07T06:53:07;3.30;1.00
1361;DHT22;674;45.552;-122.600;2024-03-07T06:55:36;3.10;1.00
1361;DHT22;674;45.552;-122.600;2024-03-07T06:58:06;3.20;1.00
1361;DHT22;674;45.552;-122.600;2024-03-07T07:00:34;3.30;1.00
1361;DHT22;674;45.552;-122.600;2024-03-07T07:03:05;3.20;1.00
1361;DHT22;674;45.552;-122.600;2024-03-07T07:05:34;3.00;1.00
1361;DHT22;674;45.552;-122.600;2024-03-07T07:08:03;2.80;1.00
1361;DHT22;674;45.552;-122.600;2024-03-07T07:10:32;2.80;1.00
1361;DHT22;674;45.552;-122.600;2024-03-07T07:13:01;3.00;1.00
1361;DHT22;674;45.552;-122.600;2024-03-07T07:15:30;2.80;1.00
1361;DHT22;674;45.552;-122.600;2024-03-07T07:17:59;3.00;1.00
1361;DHT22;674;45.552;-122.600;2024-03-07T07:20:27;2.70;1.00
1361;DHT22;674;45.552;-122.600;2024-03-07T07:22:56;2.70;1.00
1361;DHT22;674;45.552;-122.600;2024-03-07T07:25:26;2.70;1.00
1361;DHT22;674;45.552;-122.600;2024-03-07T07:27:55;2.70;1.00
1361;DHT22;674;45.552;-122.600;2024-03-07T07:30:24;2.50;1.00
1361;DHT22;674;45.552;-122.600;2024-03-07T07:32:53;2.50;1.00
1361;DHT22;674;45.552;-122.600;2024-03-07T07:35:22;2.50;1.00
1361;DHT22;674;45.552;-122.600;2024-03-07T07:37:51;2.30;1.00
1361;DHT22;674;45.552;-122.600;2024-03-07T07:40:23;2.50;1.00
1361;DHT22;674;45.552;-122.600;2024-03-07T07:42:53;2.50;1.00
1361;DHT22;674;45.552;-122.600;2024-03-07T07:45:24;2.50;1.00
1361;DHT22;674;45.552;-122.600;2024-03-07T07:47:53;2.50;1.00
1361;DHT22;674;45.552;-122.600;2024-03-07T07:50:23;2.00;1.00
1361;DHT22;674;45.552;-122.600;2024-03-07T07:52:57;2.20;1.00
1361;DHT22;674;45.552;-122.600;2024-03-07T07:55:28;2.30;1.00
1361;DHT22;674;45.552;-122.600;2024-03-07T07:57:58;2.00;1.00
1361;DHT22;674;45.552;-122.600;2024-03-07T08:00:28;2.20;1.00
1361;DHT22;674;45.552;-122.600;2024-03-07T08:02:59;2.20;1.00
1361;DHT22;674;45.552;-122.600;2024-03-07T08:05:30;2.00;1.00
1361;DHT22;674;45.552;-122.600;2024-03-07T08:08:02;1.90;1.00
1361;DHT22;674;45.552;-122.600;2024-03-07T08:10:34;1.50;1.00
1361;DHT22;674;45.552;-122.600;2024-03-07T08:13:05;1.50;1.00
1361;DHT22;674;45.552;-122.600;2024-03-07T08:15:34;1.60;1.00
1361;DHT22;674;45.552;-122.600;2024-03-07T08:18:03;1.50;1.00
1361;DHT22;674;45.552;-122.600;2024-03-07T08:20:41;1.50;1.00
1361;DHT22;674;45.552;-122.600;2024-03-07T08:23:11;1.60;1.00
1361;DHT22;674;45.552;-122.600;2024-03-07T08:25:41;1.70;1.00
1361;DHT22;674;45.552;-122.600;2024-03-07T08:28:09;1.70;1.00
1361;DHT22;674;45.552;-122.600;2024-03-07T08:30:38;1.40;2.40
1361;DHT22;674;45.552;-122.600;2024-03-07T08:33:06;1.50;9.00
1361;DHT22;674;45.552;-122.600;2024-03-07T08:35:35;1.50;13.10
1361;DHT22;674;45.552;-122.600;2024-03-07T08:38:04;1.30;15.40
1361;DHT22;674;45.552;-122.600;2024-03-07T08:40:32;1.10;16.40
1361;DHT22;674;45.552;-122.600;2024-03-07T08:43:02;1.20;17.10
1361;DHT22;674;45.552;-122.600;2024-03-07T08:45:31;1.30;17.00
1361;DHT22;674;45.552;-122.600;2024-03-07T08:48:03;1.30;18.80
1361;DHT22;674;45.552;-122.600;2024-03-07T08:50:41;0.90;20.10
1361;DHT22;674;45.552;-122.600;2024-03-07T08:53:09;1.20;23.20
1361;DHT22;674;45.552;-122.600;2024-03-07T08:55:38;1.10;25.70
1361;DHT22;674;45.552;-122.600;2024-03-07T08:58:06;1.20;28.10
1361;DHT22;674;45.552;-122.600;2024-03-07T09:00:35;1.30;26.90
1361;DHT22;674;45.552;-122.600;2024-03-07T09:03:06;1.10;26.60
1361;DHT22;674;45.552;-122.600;2024-03-07T09:05:40;0.90;25.30
1361;DHT22;674;45.552;-122.600;2024-03-07T09:08:08;1.20;26.60
1361;DHT22;674;45.552;-122.600;2024-03-07T09:10:39;0.80;28.50
1361;DHT22;674;45.552;-122.600;2024-03-07T09:13:10;0.90;31.90
1361;DHT22;674;45.552;-122.600;2024-03-07T09:15:39;1.00;31.90
1361;DHT22;674;45.552;-122.600;2024-03-07T09:18:07;1.00;34.60
1361;DHT22;674;45.552;-122.600;2024-03-07T09:20:36;0.80;38.50
1361;DHT22;674;45.552;-122.600;2024-03-07T09:23:06;0.80;41.10
1361;DHT22;674;45.552;-122.600;2024-03-07T09:25:34;0.60;42.80
1361;DHT22;674;45.552;-122.600;2024-03-07T09:28:04;0.70;44.60
1361;DHT22;674;45.552;-122.600;2024-03-07T09:30:34;0.70;48.00
1361;DHT22;674;45.552;-122.600;2024-03-07T09:33:07;0.80;54.60
1361;DHT22;674;45.552;-122.600;2024-03-07T09:35:39;0.80;60.10
1361;DHT22;674;45.552;-122.600;2024-03-07T09:38:08;0.40;62.50
1361;DHT22;674;45.552;-122.600;2024-03-07T09:40:36;0.70;67.00
1361;DHT22;674;45.552;-122.600;2024-03-07T09:43:06;0.40;68.30
1361;DHT22;674;45.552;-122.600;2024-03-07T09:45:38;0.70;70.60
1361;DHT22;674;45.552;-122.600;2024-03-07T09:48:10;0.40;71.50
1361;DHT22;674;45.552;-122.600;2024-03-07T09:50:41;0.40;73.10
1361;DHT22;674;45.552;-122.600;2024-03-07T09:53:12;0.70;77.50
1361;DHT22;674;45.552;-122.600;2024-03-07T09:55:41;0.50;79.40
1361;DHT22;674;45.552;-122.600;2024-03-07T09:58:11;0.40;81.70
1361;DHT22;674;45.552;-122.600;2024-03-07T10:00:41;0.20;84.40
1361;DHT22;674;45.552;-122.600;2024-03-07T10:03:10;0.10;85.40
1361;DHT22;674;45.552;-122.600;2024-03-07T10:05:41;0.10;90.40
1361;DHT22;674;45.552;-122.600;2024-03-07T10:08:11;0.40;91.50
1361;DHT22;674;45.552;-122.600;2024-03-07T10:10:41;0.20;91.80
1361;DHT22;674;45.552;-122.600;2024-03-07T10:13:12;0.20;92.50
1361;DHT22;674;45.552;-122.600;2024-03-07T10:15:41;0.20;93.50
1361;DHT22;674;45.552;-122.600;2024-03-07T10:18:11;0.20;92.80
1361;DHT22;674;45.552;-122.600;2024-03-07T10:20:45;0.40;93.90
1361;DHT22;674;45.552;-122.600;2024-03-07T10:23:19;0.10;94.90
1361;DHT22;674;45.552;-122.600;2024-03-07T10:25:51;0.40;95.40
1361;DHT22;674;45.552;-122.600;2024-03-07T10:28:22;0.50;95.90
1361;DHT22;674;45.552;-122.600;2024-03-07T10:30:51;0.00;95.50
1361;DHT22;674;45.552;-122.600;2024-03-07T10:33:19;0.10;95.70
1361;DHT22;674;45.552;-122.600;2024-03-07T10:35:49;-0.10;96.90
1361;DHT22;674;45.552;-122.600;2024-03-07T10:38:18;-0.10;97.00
1361;DHT22;674;45.552;-122.600;2024-03-07T10:40:54;-0.10;98.20
1361;DHT22;674;45.552;-122.600;2024-03-07T10:43:23;0.10;98.40
1361;DHT22;674;45.552;-122.600;2024-03-07T10:45:55;-0.10;99.90
1361;DHT22;674;45.552;-122.600;2024-03-07T10:48:29;-0.10;99.90
1361;DHT22;674;45.552;-122.600;2024-03-07T10:51:25;0.10;99.90
1361;DHT22;674;45.552;-122.600;2024-03-07T10:54:33;0.10;99.90
1361;DHT22;674;45.552;-122.600;2024-03-07T10:57:20;0.10;99.90
1361;DHT22;674;45.552;-122.600;2024-03-07T10:59:56;0.00;99.90
1361;DHT22;674;45.552;-122.600;2024-03-07T11:02:55;0.10;99.90
1361;DHT22;674;45.552;-122.600;2024-03-07T11:05:27;0.10;99.90
1361;DHT22;674;45.552;-122.600;2024-03-07T11:08:03;0.10;99.90
1361;DHT22;674;45.552;-122.600;2024-03-07T11:10:40;-0.30;99.90
1361;DHT22;674;45.552;-122.600;2024-03-07T11:13:10;0.00;99.90
1361;DHT22;674;45.552;-122.600;2024-03-07T11:15:43;-0.40;99.90
1361;DHT22;674;45.552;-122.600;2024-03-07T11:18:13;0.00;99.90
1361;DHT22;674;45.552;-122.600;2024-03-07T11:20:42;-0.30;99.90
1361;DHT22;674;45.552;-122.600;2024-03-07T11:23:29;-0.30;99.90
1361;DHT22;674;45.552;-122.600;2024-03-07T11:26:08;-0.20;99.90
1361;DHT22;674;45.552;-122.600;2024-03-07T11:28:38;-0.40;99.90
1361;DHT22;674;45.552;-122.600;2024-03-07T11:31:36;-0.40;99.90
1361;DHT22;674;45.552;-122.600;2024-03-07T11:34:16;-0.40;99.90
1361;DHT22;674;45.552;-122.600;2024-03-07T11:36:48;-0.40;99.90
1361;DHT22;674;45.552;-122.600;2024-03-07T11:39:45;-0.40;99.90
1361;DHT22;674;45.552;-122.600;2024-03-07T11:42:27;-0.50;99.90
1361;DHT22;674;45.552;-122.600;2024-03-07T11:45:02;-0.40;99.90
1361;DHT22;674;45.552;-122.600;2024-03-07T11:47:37;-0.60;99.90
1361;DHT22;674;45.552;-122.600;2024-03-07T11:50:09;-0.50;99.90
1361;DHT22;674;45.552;-122.600;2024-03-07T11:52:41;-0.50;99.90
1361;DHT22;674;45.552;-122.600;2024-03-07T11:55:14;-0.40;99.90
1361;DHT22;674;45.552;-122.600;2024-03-07T11:57:43;-0.60;99.90
1361;DHT22;674;45.552;-122.600;2024-03-07T12:00:13;-0.50;99.90
1361;DHT22;674;45.552;-122.600;2024-03-07T12:02:43;-0.50;99.90
1361;DHT22;674;45.552;-122.600;2024-03-07T12:05:12;-0.50;99.90
1361;DHT22;674;45.552;-122.600;2024-03-07T12:07:44;-0.50;99.90
1361;DHT22;674;45.552;-122.600;2024-03-07T12:10:12;-0.60;99.90
1361;DHT22;674;45.552;-122.600;2024-03-07T12:12:42;-0.50;99.90
1361;DHT22;674;45.552;-122.600;2024-03-07T12:15:11;-0.50;99.90
1361;DHT22;674;45.552;-122.600;2024-03-07T12:17:47;-0.50;99.90
1361;DHT22;674;45.552;-122.600;2024-03-07T12:20:18;-0.40;99.90
1361;DHT22;674;45.552;-122.600;2024-03-07T12:22:59;-0.60;99.90
1361;DHT22;674;45.552;-122.600;2024-03-07T12:25:32;-0.60;99.90
1361;DHT22;674;45.552;-122.600;2024-03-07T12:28:08;-0.50;99.90
1361;DHT22;674;45.552;-122.600;2024-03-07T12:33:14;-0.80;99.90
1361;DHT22;674;45.552;-122.600;2024-03-07T12:35:46;-0.70;99.90
1361;DHT22;674;45.552;-122.600;2024-03-07T12:38:15;-0.40;99.90
1361;DHT22;674;45.552;-122.600;2024-03-07T12:40:45;-0.80;99.90
1361;DHT22;674;45.552;-122.600;2024-03-07T12:43:20;-0.70;99.90
1361;DHT22;674;45.552;-122.600;2024-03-07T12:45:50;-0.40;99.90
1361;DHT22;674;45.552;-122.600;2024-03-07T12:48:19;-0.70;99.90
1361;DHT22;674;45.552;-122.600;2024-03-07T12:50:50;-0.40;99.90
1361;DHT22;674;45.552;-122.600;2024-03-07T12:53:25;-0.50;99.90
1361;DHT22;674;45.552;-122.600;2024-03-07T12:55:54;-0.50;99.90
1361;DHT22;674;45.552;-122.600;2024-03-07T12:58:22;-0.70;99.90
1361;DHT22;674;45.552;-122.600;2024-03-07T13:00:54;-0.80;99.90
1361;DHT22;674;45.552;-122.600;2024-03-07T13:03:26;-0.70;99.90
1361;DHT22;674;45.552;-122.600;2024-03-07T13:06:00;-0.80;99.90
1361;DHT22;674;45.552;-122.600;2024-03-07T13:08:30;-0.80;99.90
1361;DHT22;674;45.552;-122.600;2024-03-07T13:10:59;-0.70;99.90
1361;DHT22;674;45.552;-122.600;2024-03-07T13:13:28;-0.80;99.90
1361;DHT22;674;45.552;-122.600;2024-03-07T13:15:58;-0.80;99.90
1361;DHT22;674;45.552;-122.600;2024-03-07T13:18:27;-0.80;99.90
1361;DHT22;674;45.552;-122.600;2024-03-07T13:20:56;-0.70;99.90
1361;DHT22;674;45.552;-122.600;2024-03-07T13:23:24;-1.10;99.90
1361;DHT22;674;45.552;-122.600;2024-03-07T13:25:55;-0.90;99.90
1361;DHT22;674;45.552;-122.600;2024-03-07T13:28:25;-0.60;99.90
1361;DHT22;674;45.552;-122.600;2024-03-07T13:30:56;-0.80;99.90
1361;DHT22;674;45.552;-122.600;2024-03-07T13:33:24;-0.80;99.90
1361;DHT22;674;45.552;-122.600;2024-03-07T13:35:55;-0.70;99.90
1361;DHT22;674;45.552;-122.600;2024-03-07T13:38:24;-1.00;99.90
1361;DHT22;674;45.552;-122.600;2024-03-07T13:40:54;-0.80;99.90
1361;DHT22;674;45.552;-122.600;2024-03-07T13:43:22;-0.80;99.90
1361;DHT22;674;45.552;-122.600;2024-03-07T13:45:51;-1.00;99.90
1361;DHT22;674;45.552;-122.600;2024-03-07T13:48:19;-0.80;99.90
1361;DHT22;674;45.552;-122.600;2024-03-07T13:50:48;-0.90;99.90
1361;DHT22;674;45.552;-122.600;2024-03-07T13:53:29;-1.00;99.90
1361;DHT22;674;45.552;-122.600;2024-03-07T14:01:55;-0.80;99.90
1361;DHT22;674;45.552;-122.600;2024-03-07T14:22:01;-0.80;99.90
1361;DHT22;674;45.552;-122.600;2024-03-07T14:27:37;-0.80;99.90
1361;DHT22;674;45.552;-122.600;2024-03-07T14:30:18;-0.80;99.90
1361;DHT22;674;45.552;-122.600;2024-03-07T14:32:51;-0.80;99.90
1361;DHT22;674;45.552;-122.600;2024-03-07T14:40:44;-0.80;99.90
1361;DHT22;674;45.552;-122.600;2024-03-07T14:43:18;-0.80;99.90
1361;DHT22;674;45.552;-122.600;2024-03-07T14:45:47;-0.70;99.90
1361;DHT22;674;45.552;-122.600;2024-03-07T14:48:17;-0.30;99.90
1361;DHT22;674;45.552;-122.600;2024-03-07T14:50:47;-0.40;99.90
1361;DHT22;674;45.552;-122.600;2024-03-07T14:53:16;-0.60;99.90
1361;DHT22;674;45.552;-122.600;2024-03-07T14:55:48;-0.50;99.90
1361;DHT22;674;45.552;-122.600;2024-03-07T14:58:16;-0.40;99.90
1361;DHT22;674;45.552;-122.600;2024-03-07T15:00:45;-0.60;99.90
1361;DHT22;674;45.552;-122.600;2024-03-07T15:03:25;-0.50;99.90
1361;DHT22;674;45.552;-122.600;2024-03-07T15:05:57;-0.50;99.90
1361;DHT22;674;45.552;-122.600;2024-03-07T15:08:26;-0.40;99.90
1361;DHT22;674;45.552;-122.600;2024-03-07T15:14:00;-0.60;99.90
1361;DHT22;674;45.552;-122.600;2024-03-07T15:16:37;-0.50;99.90
1361;DHT22;674;45.552;-122.600;2024-03-07T15:19:07;-0.40;99.90
1361;DHT22;674;45.552;-122.600;2024-03-07T15:21:37;-0.70;99.90
1361;DHT22;674;45.552;-122.600;2024-03-07T15:24:06;-0.40;99.90
1361;DHT22;674;45.552;-122.600;2024-03-07T15:26:35;-0.60;99.90
1361;DHT22;674;45.552;-122.600;2024-03-07T15:29:04;-0.50;99.90
1361;DHT22;674;45.552;-122.600;2024-03-07T15:31:33;-0.40;99.90
1361;DHT22;674;45.552;-122.600;2024-03-07T15:34:01;-0.10;99.90
1361;DHT22;674;45.552;-122.600;2024-03-07T15:36:31;-0.40;99.90
1361;DHT22;674;45.552;-122.600;2024-03-07T15:38:59;-0.40;99.90
1361;DHT22;674;45.552;-122.600;2024-03-07T15:41:43;-0.40;99.90
1361;DHT22;674;45.552;-122.600;2024-03-07T15:44:12;-0.40;99.90
1361;DHT22;674;45.552;-122.600;2024-03-07T15:46:40;-0.20;99.90
1361;DHT22;674;45.552;-122.600;2024-03-07T15:49:09;0.20;99.90
1361;DHT22;674;45.552;-122.600;2024-03-07T15:51:37;0.40;99.90
1361;DHT22;674;45.552;-122.600;2024-03-07T15:54:06;0.40;99.90
1361;DHT22;674;45.552;-122.600;2024-03-07T15:56:35;0.30;99.90
1361;DHT22;674;45.552;-122.600;2024-03-07T15:59:04;0.40;99.90
1361;DHT22;674;45.552;-122.600;2024-03-07T16:01:32;0.60;99.90
1361;DHT22;674;45.552;-122.600;2024-03-07T16:04:02;0.60;99.90
1361;DHT22;674;45.552;-122.600;2024-03-07T16:06:30;0.70;99.90
1361;DHT22;674;45.552;-122.600;2024-03-07T16:08:59;0.60;99.90
1361;DHT22;674;45.552;-122.600;2024-03-07T16:11:27;0.70;99.90
1361;DHT22;674;45.552;-122.600;2024-03-07T16:13:56;1.00;99.90
1361;DHT22;674;45.552;-122.600;2024-03-07T16:16:25;1.10;99.90
1361;DHT22;674;45.552;-122.600;2024-03-07T16:18:53;1.00;99.90
1361;DHT22;674;45.552;-122.600;2024-03-07T16:21:22;1.20;99.90
1361;DHT22;674;45.552;-122.600;2024-03-07T16:23:50;1.20;99.90
1361;DHT22;674;45.552;-122.600;2024-03-07T16:26:20;1.50;99.90
1361;DHT22;674;45.552;-122.600;2024-03-07T16:28:49;1.60;99.90
1361;DHT22;674;45.552;-122.600;2024-03-07T16:31:17;1.50;99.90
1361;DHT22;674;45.552;-122.600;2024-03-07T16:33:45;1.70;99.90
1361;DHT22;674;45.552;-122.600;2024-03-07T16:36:14;1.90;99.90
1361;DHT22;674;45.552;-122.600;2024-03-07T16:38:43;1.80;99.90
1361;DHT22;674;45.552;-122.600;2024-03-07T16:41:11;2.00;99.90
1361;DHT22;674;45.552;-122.600;2024-03-07T16:43:40;2.30;99.90
1361;DHT22;674;45.552;-122.600;2024-03-07T16:46:08;2.00;99.90
1361;DHT22;674;45.552;-122.600;2024-03-07T16:48:37;2.10;99.90